Time;durP1;ratioP1;P1;durP2;ratioP2;P2;SDS_P1;SDS_P2;PMS_P1;PMS_P2;Temp;Humidity;BMP_temperature;BMP_pressure;BME280_temperature;BME280_humidity;BME280_pressure;Samples;Min_cycle;Max_cycle;Signal;HPM_P1;HPM_P2
2021/09/13 00:01:02;;;;;;;9.68;4.85;;;16.50;99.90;;;;;;5048567;28;20391;-71
2021/09/13 00:03:27;;;;;;;7.40;5.32;;;16.50;99.90;;;;;;5048823;28;20078;-71
2021/09/13 00:05:53;;;;;;;8.88;5.30;;;16.40;99.90;;;;;;5049343;28;20063;-71
2021/09/13 00:08:18;;;;;;;7.50;4.68;;;16.40;99.90;;;;;;5049461;28;20076;-71
2021/09/13 00:10:46;;;;;;;8.32;5.65;;;16.40;99.90;;;;;;5049190;28;20021;-70
2021/09/13 00:13:11;;;;;;;11.48;5.18;;;16.40;99.90;;;;;;5048502;28;20487;-70
2021/09/13 00:15:37;;;;;;;9.00;5.65;;;16.30;99.90;;;;;;5046498;28;20047;-71
2021/09/13 00:18:03;;;;;;;10.20;5.07;;;16.30;99.90;;;;;;5048046;28;20036;-71
2021/09/13 00:20:28;;;;;;;9.48;5.10;;;16.30;99.90;;;;;;5050262;28;20025;-71
2021/09/13 00:22:54;;;;;;;10.02;4.68;;;16.30;99.90;;;;;;5048035;28;20165;-70
2021/09/13 00:25:20;;;;;;;7.70;5.60;;;16.30;99.90;;;;;;5048552;28;20033;-70
2021/09/13 00:27:45;;;;;;;9.88;5.82;;;16.30;99.90;;;;;;5041537;28;20023;-71
2021/09/13 00:30:11;;;;;;;13.55;6.78;;;16.30;99.90;;;;;;5042756;28;20025;-71
2021/09/13 00:32:37;;;;;;;12.00;6.43;;;16.20;99.90;;;;;;5042183;28;20467;-71
2021/09/13 00:35:03;;;;;;;11.93;5.90;;;16.30;99.90;;;;;;5044813;28;20033;-70
2021/09/13 00:37:28;;;;;;;14.73;6.20;;;16.20;99.90;;;;;;5047930;28;20040;-71
2021/09/13 00:39:54;;;;;;;8.70;5.65;;;16.20;99.90;;;;;;5042758;28;20765;-71
2021/09/13 00:42:19;;;;;;;7.72;5.22;;;16.10;99.90;;;;;;5048549;28;20103;-72
2021/09/13 00:44:45;;;;;;;7.47;4.93;;;16.00;99.90;;;;;;5045649;28;20079;-71
2021/09/13 00:47:11;;;;;;;10.32;5.70;;;16.00;99.90;;;;;;5047269;28;20039;-71
2021/09/13 00:49:37;;;;;;;9.43;5.18;;;15.90;99.90;;;;;;5048013;28;20471;-71
2021/09/13 00:52:02;;;;;;;7.85;5.32;;;15.90;99.90;;;;;;5042478;28;20233;-70
2021/09/13 00:54:28;;;;;;;8.95;5.10;;;15.80;99.90;;;;;;5048989;28;20029;-71
2021/09/13 00:56:54;;;;;;;8.85;5.93;;;15.80;99.90;;;;;;5046959;28;20064;-71
2021/09/13 00:59:20;;;;;;;11.07;5.95;;;15.80;99.90;;;;;;5047964;28;20056;-70
2021/09/13 01:01:45;;;;;;;8.98;6.00;;;15.80;99.90;;;;;;5046893;28;20488;-71
2021/09/13 01:04:11;;;;;;;9.13;5.57;;;15.90;99.90;;;;;;5044262;28;20025;-71
2021/09/13 01:06:37;;;;;;;11.77;5.68;;;15.80;99.90;;;;;;5047955;28;20033;-71
2021/09/13 01:09:03;;;;;;;9.18;5.80;;;15.80;99.90;;;;;;5047274;28;20483;-71
2021/09/13 01:11:29;;;;;;;8.23;5.35;;;15.80;99.90;;;;;;5052467;28;20069;-70
2021/09/13 01:13:54;;;;;;;9.30;5.43;;;15.80;99.90;;;;;;5047382;28;20033;-71
2021/09/13 01:16:20;;;;;;;9.65;5.60;;;15.80;99.90;;;;;;5046141;28;20029;-70
2021/09/13 01:18:45;;;;;;;13.40;5.68;;;15.80;99.90;;;;;;5047001;28;20128;-71
2021/09/13 01:21:11;;;;;;;7.75;5.00;;;15.80;99.90;;;;;;5038405;28;20028;-70
2021/09/13 01:23:37;;;;;;;8.75;5.50;;;15.70;99.90;;;;;;5049101;28;20025;-71
2021/09/13 01:26:03;;;;;;;7.40;5.25;;;15.70;99.90;;;;;;5046967;28;20044;-71
2021/09/13 01:28:29;;;;;;;10.18;5.70;;;15.70;99.90;;;;;;5045453;28;20025;-71
2021/09/13 01:30:54;;;;;;;9.48;6.25;;;15.70;99.90;;;;;;5047539;28;20589;-71
2021/09/13 01:33:21;;;;;;;9.93;5.80;;;15.70;99.90;;;;;;5042711;28;20035;-70
2021/09/13 01:35:47;;;;;;;9.05;5.47;;;15.70;99.90;;;;;;5044747;28;20029;-71
2021/09/13 01:38:13;;;;;;;8.00;5.60;;;15.70;99.90;;;;;;5047246;28;20090;-70
2021/09/13 01:40:39;;;;;;;10.77;6.45;;;15.70;99.90;;;;;;5046840;28;20503;-70
2021/09/13 01:43:04;;;;;;;12.25;5.50;;;15.70;99.90;;;;;;5047691;28;20029;-70
2021/09/13 01:45:30;;;;;;;10.65;6.75;;;15.70;99.90;;;;;;5047058;28;20037;-71
2021/09/13 01:47:56;;;;;;;9.70;5.43;;;15.70;99.90;;;;;;5046248;28;20040;-71
2021/09/13 01:50:21;;;;;;;9.75;5.82;;;15.70;99.90;;;;;;5047668;28;20029;-71
2021/09/13 01:52:47;;;;;;;8.88;5.75;;;15.70;99.90;;;;;;5047306;28;20076;-71
2021/09/13 01:55:13;;;;;;;8.73;5.47;;;15.60;99.90;;;;;;5047079;28;20036;-71
2021/09/13 01:57:39;;;;;;;11.05;5.72;;;15.70;99.90;;;;;;5047070;28;20529;-71
2021/09/13 02:00:06;;;;;;;9.20;6.18;;;15.60;99.90;;;;;;5047085;28;20041;-71
2021/09/13 02:02:32;;;;;;;15.10;9.50;;;15.70;99.90;;;;;;5041579;28;20036;-71
2021/09/13 02:04:57;;;;;;;19.50;14.48;;;15.70;99.90;;;;;;5040640;28;20030;-71
2021/09/13 02:07:23;;;;;;;25.73;18.75;;;15.70;99.90;;;;;;5045574;28;20037;-70
2021/09/13 02:09:52;;;;;;;24.92;18.20;;;15.70;99.90;;;;;;5047783;28;20028;-71
2021/09/13 02:12:18;;;;;;;22.02;16.60;;;15.70;99.90;;;;;;5047001;28;20041;-70
2021/09/13 02:14:44;;;;;;;25.35;15.50;;;15.70;99.90;;;;;;5044894;28;20021;-71
2021/09/13 02:17:09;;;;;;;32.97;16.45;;;15.70;99.90;;;;;;5046440;28;20054;-70
2021/09/13 02:19:38;;;;;;;19.58;13.80;;;15.70;99.90;;;;;;5053987;28;20568;-71
2021/09/13 02:22:04;;;;;;;21.95;15.40;;;15.70;99.90;;;;;;5040017;28;20033;-71
2021/09/13 02:24:29;;;;;;;21.88;15.32;;;15.60;99.90;;;;;;5038210;28;20091;-71
2021/09/13 02:26:55;;;;;;;18.38;12.25;;;15.60;99.90;;;;;;5046429;28;20037;-71
2021/09/13 02:29:20;;;;;;;22.73;11.48;;;15.50;99.90;;;;;;5046254;28;20029;-71
2021/09/13 02:31:46;;;;;;;14.10;10.00;;;15.50;99.90;;;;;;5047123;28;20222;-71
2021/09/13 02:34:11;;;;;;;12.82;8.50;;;15.40;99.90;;;;;;5047252;28;20559;-70
2021/09/13 02:36:39;;;;;;;13.45;7.15;;;15.40;99.90;;;;;;5047399;28;20426;-70
2021/09/13 02:39:04;;;;;;;11.88;6.75;;;15.30;99.90;;;;;;5045574;28;20041;-71
2021/09/13 02:41:33;;;;;;;8.50;5.40;;;15.30;99.90;;;;;;5038498;28;20029;-70
2021/09/13 02:43:58;;;;;;;9.93;6.05;;;15.30;99.90;;;;;;5045353;28;20029;-71
2021/09/13 02:46:24;;;;;;;13.80;5.50;;;15.20;99.90;;;;;;5047602;28;20044;-71
2021/09/13 02:48:50;;;;;;;8.98;5.57;;;15.20;99.90;;;;;;5046320;28;20380;-70
2021/09/13 02:51:15;;;;;;;8.90;5.78;;;15.20;99.90;;;;;;5047416;28;20037;-70
2021/09/13 02:53:41;;;;;;;9.35;5.47;;;15.20;99.90;;;;;;5057855;28;20033;-70
2021/09/13 02:56:06;;;;;;;10.95;5.20;;;15.20;99.90;;;;;;5044636;28;20045;-71
2021/09/13 02:58:32;;;;;;;9.20;5.78;;;15.20;99.90;;;;;;5050066;28;20079;-71
2021/09/13 03:00:57;;;;;;;9.50;5.85;;;15.20;99.90;;;;;;5046099;28;20044;-71
2021/09/13 03:03:23;;;;;;;11.18;5.15;;;15.20;99.90;;;;;;5048286;28;20395;-71
2021/09/13 03:05:48;;;;;;;11.07;5.95;;;15.20;99.90;;;;;;5037681;28;20028;-71
2021/09/13 03:08:14;;;;;;;12.65;6.55;;;15.10;99.90;;;;;;5051118;28;20025;-71
2021/09/13 03:10:39;;;;;;;8.98;5.63;;;15.10;99.90;;;;;;5050579;28;20032;-70
2021/09/13 03:13:05;;;;;;;18.55;6.60;;;15.10;99.90;;;;;;5050419;28;20028;-71
2021/09/13 03:15:30;;;;;;;10.63;6.45;;;15.10;99.90;;;;;;5048768;28;20376;-71
2021/09/13 03:17:56;;;;;;;10.32;6.50;;;15.10;99.90;;;;;;5046494;28;20056;-71
2021/09/13 03:20:21;;;;;;;13.07;6.85;;;15.10;99.90;;;;;;5047928;28;20048;-71
2021/09/13 03:22:47;;;;;;;11.13;7.05;;;15.10;99.90;;;;;;5049551;28;20062;-71
2021/09/13 03:25:13;;;;;;;10.40;6.90;;;15.10;99.90;;;;;;5046582;28;20547;-71
2021/09/13 03:27:38;;;;;;;11.77;7.50;;;15.10;99.90;;;;;;5049269;28;20025;-71
2021/09/13 03:30:05;;;;;;;14.40;8.13;;;15.10;99.90;;;;;;5050073;28;20028;-70
2021/09/13 03:32:31;;;;;;;11.13;6.65;;;15.10;99.90;;;;;;5044855;28;20107;-71
2021/09/13 03:34:57;;;;;;;9.88;6.85;;;15.10;99.90;;;;;;5045551;28;20607;-70
2021/09/13 03:37:22;;;;;;;8.95;6.60;;;15.10;99.90;;;;;;5049355;28;20116;-71
2021/09/13 03:39:48;;;;;;;11.77;7.20;;;15.10;99.90;;;;;;5048962;28;20021;-70
2021/09/13 03:42:14;;;;;;;13.20;7.00;;;15.10;99.90;;;;;;5041152;28;20021;-70
2021/09/13 03:44:39;;;;;;;11.98;6.05;;;15.10;99.90;;;;;;5050589;28;20044;-70
2021/09/13 03:47:05;;;;;;;10.90;6.55;;;15.10;99.90;;;;;;5049191;28;20013;-70
2021/09/13 03:49:30;;;;;;;9.13;5.95;;;15.10;99.90;;;;;;5049988;28;20025;-70
2021/09/13 03:51:56;;;;;;;9.75;6.40;;;15.10;99.90;;;;;;5044638;28;20082;-71
2021/09/13 03:54:22;;;;;;;9.07;5.68;;;15.20;99.90;;;;;;5043121;28;20025;-71
2021/09/13 03:56:47;;;;;;;9.68;5.40;;;15.20;99.90;;;;;;5039017;28;20026;-71
2021/09/13 03:59:13;;;;;;;8.63;5.40;;;15.20;99.90;;;;;;5038663;28;20036;-71
2021/09/13 04:01:39;;;;;;;10.82;5.70;;;15.30;99.90;;;;;;5047722;28;20029;-71
2021/09/13 04:04:05;;;;;;;10.68;4.85;;;15.20;99.90;;;;;;5048657;28;20112;-70
2021/09/13 04:11:57;;;;;;;8.05;4.70;;;15.30;99.90;;;;;;5046690;28;20032;-70
2021/09/13 04:14:25;;;;;;;9.05;4.05;;;15.20;99.90;;;;;;5048194;28;20040;-70
2021/09/13 04:16:51;;;;;;;6.32;4.63;;;15.20;99.90;;;;;;5046382;28;20036;-70
2021/09/13 04:19:17;;;;;;;5.95;4.05;;;15.20;99.90;;;;;;5048136;28;20056;-70
2021/09/13 04:21:42;;;;;;;9.02;4.43;;;15.20;99.90;;;;;;5047878;28;20471;-70
2021/09/13 04:24:08;;;;;;;5.93;4.32;;;15.10;99.90;;;;;;5048745;28;20078;-71
2021/09/13 04:26:34;;;;;;;8.13;4.00;;;15.10;99.90;;;;;;5049472;28;20399;-71
2021/09/13 04:28:59;;;;;;;8.27;3.80;;;15.10;99.90;;;;;;5046940;28;20025;-70
2021/09/13 04:31:27;;;;;;;6.70;4.40;;;15.10;99.90;;;;;;5047848;28;20027;-70
2021/09/13 04:33:52;;;;;;;6.15;3.95;;;15.10;99.90;;;;;;5048282;28;20044;-71
2021/09/13 04:36:17;;;;;;;5.50;3.97;;;15.00;99.90;;;;;;5047054;28;20119;-71
2021/09/13 04:38:43;;;;;;;6.15;3.88;;;15.00;99.90;;;;;;5046638;28;20021;-71
2021/09/13 04:41:09;;;;;;;5.63;4.07;;;15.10;99.90;;;;;;5045951;28;20032;-71
2021/09/13 04:43:34;;;;;;;7.82;3.83;;;15.10;99.90;;;;;;5048313;28;20028;-71
2021/09/13 04:46:00;;;;;;;8.50;3.75;;;15.00;99.90;;;;;;5043902;28;20027;-70
2021/09/13 04:48:25;;;;;;;6.72;4.05;;;15.00;99.90;;;;;;5042545;28;20036;-71
2021/09/13 04:50:53;;;;;;;6.50;4.10;;;15.00;99.90;;;;;;5041312;28;20030;-70
2021/09/13 04:53:20;;;;;;;11.80;4.03;;;15.00;99.90;;;;;;5046676;28;20094;-71
2021/09/13 04:55:46;;;;;;;8.05;4.10;;;15.10;99.90;;;;;;5044268;28;20052;-70
2021/09/13 04:58:11;;;;;;;8.00;3.58;;;15.00;99.90;;;;;;5048644;28;20029;-72
2021/09/13 05:00:37;;;;;;;8.25;3.85;;;15.00;99.90;;;;;;5046202;28;20063;-74
2021/09/13 05:03:03;;;;;;;7.20;4.15;;;15.00;99.90;;;;;;5045316;28;20060;-74
2021/09/13 05:05:28;;;;;;;5.03;3.72;;;15.00;99.90;;;;;;5047605;28;20064;-74
2021/09/13 05:07:54;;;;;;;6.70;3.90;;;15.00;99.90;;;;;;5045490;28;20025;-75
2021/09/13 05:10:19;;;;;;;7.20;4.07;;;14.90;99.90;;;;;;5047505;28;20720;-73
2021/09/13 05:12:45;;;;;;;6.43;4.00;;;14.90;99.90;;;;;;5044793;28;20596;-72
2021/09/13 05:15:11;;;;;;;10.30;4.28;;;14.90;99.90;;;;;;5046680;28;20029;-73
2021/09/13 05:17:36;;;;;;;8.00;3.60;;;14.90;99.90;;;;;;5047762;28;20390;-72
2021/09/13 05:20:02;;;;;;;6.72;3.88;;;14.90;99.90;;;;;;5047075;28;20086;-72
2021/09/13 05:22:28;;;;;;;5.82;3.70;;;14.90;99.90;;;;;;5047512;28;20082;-72
2021/09/13 05:24:53;;;;;;;7.60;4.07;;;14.90;99.90;;;;;;5041468;28;20427;-72
2021/09/13 05:27:19;;;;;;;5.55;3.40;;;14.90;99.90;;;;;;5044250;28;20041;-73
2021/09/13 05:29:44;;;;;;;7.78;3.65;;;14.90;99.90;;;;;;5044788;28;20391;-72
2021/09/13 05:32:10;;;;;;;5.70;4.10;;;14.90;99.90;;;;;;5045858;28;20024;-73
2021/09/13 05:34:36;;;;;;;7.30;4.57;;;14.90;99.90;;;;;;5045799;28;20047;-73
2021/09/13 05:37:02;;;;;;;6.07;3.75;;;14.90;99.90;;;;;;5046805;28;20430;-74
2021/09/13 05:39:27;;;;;;;7.95;3.95;;;14.90;99.90;;;;;;5046777;28;20131;-74
2021/09/13 05:41:52;;;;;;;6.35;3.67;;;14.90;99.90;;;;;;5047279;28;20025;-73
2021/09/13 05:44:18;;;;;;;5.43;3.60;;;14.90;99.90;;;;;;5046929;28;20044;-73
2021/09/13 05:46:44;;;;;;;8.27;3.70;;;14.90;99.90;;;;;;5047421;28;20391;-73
2021/09/13 05:49:10;;;;;;;8.60;3.80;;;14.90;99.90;;;;;;5042993;28;20111;-76
2021/09/13 05:51:42;;;;;;;4.32;3.35;;;15.00;99.90;;;;;;5045954;28;20045;-75
2021/09/13 05:54:12;;;;;;;7.70;3.90;;;15.00;99.90;;;;;;5033614;28;20025;-73
2021/09/13 05:56:38;;;;;;;8.80;3.30;;;15.00;99.90;;;;;;5058345;28;20059;-73
2021/09/13 05:59:03;;;;;;;11.90;3.33;;;15.00;99.90;;;;;;5042716;28;20033;-73
2021/09/13 06:01:29;;;;;;;4.45;3.25;;;15.00;99.90;;;;;;5046718;28;20033;-73
2021/09/13 06:03:54;;;;;;;4.90;3.40;;;15.00;99.90;;;;;;5045687;28;20044;-73
2021/09/13 06:06:20;;;;;;;10.73;3.28;;;15.00;99.90;;;;;;5035332;28;20030;-74
2021/09/13 06:08:45;;;;;;;4.20;3.35;;;15.10;99.90;;;;;;5039722;28;20037;-74
2021/09/13 06:11:11;;;;;;;5.63;3.45;;;15.10;99.90;;;;;;5045181;28;20035;-74
2021/09/13 06:13:36;;;;;;;4.30;2.67;;;15.10;99.90;;;;;;5047318;28;20013;-73
2021/09/13 06:16:02;;;;;;;4.78;3.15;;;15.20;99.90;;;;;;5047404;28;20052;-73
2021/09/13 06:18:27;;;;;;;6.30;3.08;;;15.10;99.90;;;;;;5055835;28;20032;-73
2021/09/13 06:20:53;;;;;;;5.80;3.00;;;15.20;99.90;;;;;;5047727;28;20451;-73
2021/09/13 06:23:18;;;;;;;7.88;3.13;;;15.20;99.90;;;;;;5046372;28;20534;-74
2021/09/13 06:25:43;;;;;;;3.67;2.47;;;15.20;99.90;;;;;;5049266;28;20479;-73
2021/09/13 06:28:10;;;;;;;6.85;3.00;;;15.30;99.90;;;;;;5051276;28;20053;-73
2021/09/13 06:30:35;;;;;;;5.57;3.00;;;15.30;99.90;;;;;;5051292;28;20025;-74
2021/09/13 06:33:01;;;;;;;6.93;2.72;;;15.30;99.90;;;;;;5051295;28;20087;-72
2021/09/13 06:35:26;;;;;;;12.70;2.90;;;15.40;99.90;;;;;;5055800;28;20075;-73
2021/09/13 06:37:52;;;;;;;6.88;2.63;;;15.40;99.90;;;;;;5051597;28;20033;-73
2021/09/13 06:40:17;;;;;;;10.70;2.65;;;15.50;99.90;;;;;;5050695;28;20110;-74
2021/09/13 06:42:43;;;;;;;4.63;3.22;;;15.40;99.90;;;;;;5050721;28;20471;-78
2021/09/13 06:45:10;;;;;;;4.05;2.30;;;15.50;99.90;;;;;;5050873;28;20048;-74
2021/09/13 06:47:45;;;;;;;4.15;2.55;;;15.50;99.90;;;;;;5047135;28;20036;-73
2021/09/13 06:50:20;;;;;;;5.57;2.60;;;15.50;99.90;;;;;;5036552;28;20120;-73
2021/09/13 06:52:51;;;;;;;3.35;2.22;;;15.60;99.90;;;;;;5040316;28;20076;-73
2021/09/13 06:55:16;;;;;;;4.53;2.50;;;15.70;99.90;;;;;;5040762;28;20526;-73
2021/09/13 06:57:42;;;;;;;3.88;2.45;;;15.70;99.90;;;;;;5041681;28;20033;-73
2021/09/13 07:00:13;;;;;;;4.78;2.50;;;15.70;99.90;;;;;;5040490;28;20412;-78
2021/09/13 07:02:40;;;;;;;5.25;2.10;;;15.80;99.90;;;;;;5045039;28;20054;-75
2021/09/13 07:05:07;;;;;;;3.55;2.28;;;15.80;99.90;;;;;;5049137;28;20404;-73
2021/09/13 07:07:33;;;;;;;4.72;2.50;;;15.80;99.90;;;;;;5049873;28;20029;-73
2021/09/13 07:10:37;;;;;;;4.30;2.92;;;15.80;99.90;;;;;;5049457;28;20074;-73
2021/09/13 07:13:03;;;;;;;7.03;2.38;;;15.90;99.90;;;;;;5048181;28;20033;-73
2021/09/13 07:15:28;;;;;;;4.85;2.20;;;15.90;99.90;;;;;;5045278;28;20074;-73
2021/09/13 07:17:54;;;;;;;5.53;1.75;;;15.90;99.90;;;;;;5036418;28;20112;-73
2021/09/13 07:20:19;;;;;;;6.00;2.38;;;15.90;99.90;;;;;;5030314;28;20037;-72
2021/09/13 07:22:45;;;;;;;8.05;2.20;;;15.90;99.90;;;;;;5042100;28;20039;-73
2021/09/13 07:25:11;;;;;;;4.93;2.90;;;15.90;99.90;;;;;;5051650;28;20033;-74
2021/09/13 07:27:39;;;;;;;4.53;2.25;;;16.00;99.90;;;;;;5047871;28;20024;-73
2021/09/13 07:30:05;;;;;;;3.63;2.40;;;16.00;99.90;;;;;;5050640;28;20021;-73
2021/09/13 07:32:31;;;;;;;4.85;2.50;;;16.10;99.90;;;;;;5046656;28;20028;-73
2021/09/13 07:34:56;;;;;;;5.47;2.25;;;16.10;99.90;;;;;;5032282;28;20116;-73
2021/09/13 07:37:22;;;;;;;4.70;2.00;;;16.20;99.90;;;;;;5040276;28;20029;-73
2021/09/13 07:39:50;;;;;;;4.30;2.35;;;16.20;99.90;;;;;;5050410;28;20293;-73
2021/09/13 07:42:16;;;;;;;6.50;2.08;;;16.30;99.90;;;;;;5051015;28;20071;-73
2021/09/13 07:44:41;;;;;;;5.95;2.50;;;16.30;99.90;;;;;;5050689;28;20436;-74
2021/09/13 07:47:07;;;;;;;5.05;1.95;;;16.30;99.90;;;;;;5047756;28;20083;-74
2021/09/13 07:49:32;;;;;;;2.45;1.90;;;16.40;99.90;;;;;;5050344;28;20025;-73
2021/09/13 07:51:58;;;;;;;5.25;2.03;;;16.40;99.90;;;;;;5048125;28;20058;-74
2021/09/13 07:54:23;;;;;;;6.10;2.33;;;16.50;99.90;;;;;;5035243;28;20040;-73
2021/09/13 07:56:49;;;;;;;2.80;1.85;;;16.50;99.90;;;;;;5049741;28;20025;-74
2021/09/13 07:59:14;;;;;;;9.20;2.30;;;16.60;99.90;;;;;;5050620;28;20119;-74
2021/09/13 08:01:40;;;;;;;3.03;1.70;;;16.60;99.90;;;;;;5045110;28;20075;-74
2021/09/13 08:04:05;;;;;;;2.63;1.85;;;16.70;99.90;;;;;;5048603;28;20056;-74
2021/09/13 08:06:31;;;;;;;5.15;1.85;;;16.70;99.90;;;;;;5049419;28;20032;-73
2021/09/13 08:08:56;;;;;;;3.22;1.95;;;16.80;99.90;;;;;;5048794;28;20033;-73
2021/09/13 08:11:22;;;;;;;3.63;1.60;;;16.90;99.90;;;;;;5049252;28;20035;-74
2021/09/13 08:13:48;;;;;;;2.80;2.00;;;16.90;99.90;;;;;;5048835;28;20018;-73
2021/09/13 08:16:14;;;;;;;2.92;2.30;;;17.00;99.90;;;;;;5055050;28;20597;-74
2021/09/13 08:18:40;;;;;;;2.55;1.80;;;17.00;99.90;;;;;;5049451;28;20400;-74
2021/09/13 08:21:09;;;;;;;5.35;2.55;;;17.00;99.90;;;;;;5049206;28;20037;-73
2021/09/13 08:23:35;;;;;;;2.72;1.88;;;17.10;99.90;;;;;;5049043;28;20090;-74
2021/09/13 08:26:03;;;;;;;6.20;2.60;;;17.20;99.90;;;;;;5034686;28;20033;-74
2021/09/13 08:28:28;;;;;;;7.63;1.95;;;17.30;99.90;;;;;;5029495;28;20040;-73
2021/09/13 08:30:53;;;;;;;5.38;1.90;;;17.30;99.90;;;;;;5042179;28;20025;-74
2021/09/13 08:33:19;;;;;;;3.85;2.08;;;17.40;99.90;;;;;;5049185;28;20056;-73
2021/09/13 08:35:46;;;;;;;3.67;2.00;;;17.40;99.90;;;;;;5049464;28;20021;-74
2021/09/13 08:38:12;;;;;;;3.22;2.05;;;17.50;99.90;;;;;;5048906;28;20049;-74
2021/09/13 08:40:37;;;;;;;4.10;1.70;;;17.60;99.90;;;;;;5048713;28;20071;-74
2021/09/13 08:43:03;;;;;;;4.15;2.00;;;17.70;99.90;;;;;;5039694;28;20040;-74
2021/09/13 08:45:44;;;;;;;5.32;1.88;;;17.70;99.90;;;;;;5045666;28;20124;-73
2021/09/13 08:48:27;;;;;;;2.97;1.90;;;17.80;99.90;;;;;;5037505;28;20037;-73
2021/09/13 08:51:03;;;;;;;3.67;1.60;;;17.90;99.90;;;;;;5045760;28;20021;-74
2021/09/13 08:53:31;;;;;;;8.35;2.00;;;17.90;99.90;;;;;;5047483;28;20033;-74
2021/09/13 08:55:59;;;;;;;3.03;1.63;;;18.00;99.90;;;;;;5045480;28;20029;-73
2021/09/13 08:58:24;;;;;;;2.85;1.73;;;18.00;99.90;;;;;;5048468;28;20036;-74
2021/09/13 09:00:51;;;;;;;2.72;1.52;;;18.00;99.90;;;;;;5048564;28;20036;-73
2021/09/13 09:03:18;;;;;;;2.25;1.50;;;18.00;99.90;;;;;;5048294;28;20045;-74
2021/09/13 09:05:47;;;;;;;2.08;1.70;;;18.00;99.90;;;;;;5048444;28;20032;-74
2021/09/13 09:08:27;;;;;;;3.47;1.83;;;18.10;99.90;;;;;;5048358;28;20029;-73
2021/09/13 09:11:00;;;;;;;5.88;1.90;;;18.10;99.90;;;;;;5049216;28;20017;-74
2021/09/13 09:13:42;;;;;;;2.53;2.00;;;18.20;99.90;;;;;;5048201;28;20036;-74
2021/09/13 09:16:15;;;;;;;4.15;1.80;;;18.30;99.90;;;;;;5048174;28;20086;-74
2021/09/13 09:18:42;;;;;;;6.30;2.50;;;18.40;99.90;;;;;;5047972;28;20029;-75
2021/09/13 09:21:10;;;;;;;4.60;1.80;;;18.50;99.90;;;;;;5046898;28;20546;-74
2021/09/13 09:23:57;;;;;;;4.32;1.77;;;18.70;99.90;;;;;;5038445;28;20104;-74
2021/09/13 09:26:23;;;;;;;2.40;1.95;;;18.80;99.90;;;;;;5050288;28;20035;-75
2021/09/13 09:28:48;;;;;;;2.55;1.90;;;18.90;99.90;;;;;;5048767;28;20021;-74
2021/09/13 09:31:14;;;;;;;2.25;2.05;;;18.90;99.90;;;;;;5044140;28;20032;-74
2021/09/13 09:33:39;;;;;;;5.28;1.85;;;18.90;99.90;;;;;;5040398;28;20025;-74
2021/09/13 09:36:12;;;;;;;3.88;1.80;;;18.90;99.90;;;;;;5029276;28;20492;-73
2021/09/13 09:38:40;;;;;;;4.13;2.05;;;18.80;99.90;;;;;;5048055;28;20548;-74
2021/09/13 09:41:17;;;;;;;3.92;1.77;;;18.70;99.90;;;;;;5048784;28;20056;-74
2021/09/13 09:43:56;;;;;;;2.22;1.73;;;18.70;99.90;;;;;;5043873;28;20025;-73
2021/09/13 09:46:23;;;;;;;3.70;1.60;;;18.80;99.90;;;;;;5048108;28;20033;-74
2021/09/13 09:48:48;;;;;;;5.60;1.60;;;18.90;99.90;;;;;;5046798;28;20032;-73
2021/09/13 09:51:28;;;;;;;3.47;1.65;;;18.90;99.90;;;;;;5043289;28;20029;-74
2021/09/13 09:53:54;;;;;;;3.65;1.67;;;18.90;99.90;;;;;;5048150;28;20029;-73
2021/09/13 09:56:20;;;;;;;1.90;1.48;;;19.00;99.90;;;;;;5047394;28;20026;-73
2021/09/13 09:58:58;;;;;;;1.83;1.40;;;19.00;99.90;;;;;;5055813;28;20067;-74
2021/09/13 10:01:39;;;;;;;2.53;1.52;;;19.00;99.90;;;;;;5050327;28;20098;-75
2021/09/13 10:04:23;;;;;;;3.40;1.77;;;19.10;99.90;;;;;;5052148;28;20036;-74
2021/09/13 10:06:54;;;;;;;2.42;1.83;;;19.10;99.90;;;;;;5034665;28;20032;-74
2021/09/13 10:09:21;;;;;;;1.70;1.42;;;19.30;99.90;;;;;;5032534;28;20427;-74
2021/09/13 10:11:48;;;;;;;2.45;1.85;;;19.30;99.90;;;;;;5049619;28;20483;-74
2021/09/13 10:14:16;;;;;;;3.85;1.65;;;19.40;99.90;;;;;;5051526;28;20032;-73
2021/09/13 10:16:44;;;;;;;2.88;1.80;;;19.50;99.90;;;;;;5052146;28;20062;-74
2021/09/13 10:19:10;;;;;;;3.35;1.45;;;19.70;99.90;;;;;;5052378;28;20033;-74
2021/09/13 10:21:36;;;;;;;9.50;1.85;;;19.90;99.90;;;;;;5051484;28;20036;-73
2021/09/13 10:24:05;;;;;;;3.63;1.90;;;19.90;99.90;;;;;;5044441;28;20120;-74
2021/09/13 10:26:31;;;;;;;2.83;1.73;;;19.80;99.90;;;;;;5051860;28;20061;-73
2021/09/13 10:29:15;;;;;;;2.60;1.88;;;19.60;99.90;;;;;;5051972;28;20108;-73
2021/09/13 10:31:44;;;;;;;3.28;1.90;;;19.30;99.90;;;;;;5052148;28;20029;-73
2021/09/13 10:34:24;;;;;;;2.78;1.95;;;19.20;99.90;;;;;;5049920;28;20021;-73
2021/09/13 10:36:58;;;;;;;2.78;2.00;;;19.00;99.90;;;;;;5050125;28;20116;-74
2021/09/13 10:39:58;;;;;;;3.10;1.75;;;19.00;99.90;;;;;;5052535;28;20561;-74
2021/09/13 10:42:40;;;;;;;2.65;1.90;;;18.90;99.90;;;;;;5051694;28;20032;-73
2021/09/13 10:45:11;;;;;;;6.07;2.25;;;18.90;99.90;;;;;;5049897;28;20539;-74
2021/09/13 10:47:39;;;;;;;3.85;1.92;;;18.90;99.90;;;;;;5050179;28;20502;-74
2021/09/13 10:50:20;;;;;;;3.47;1.80;;;19.10;99.90;;;;;;5049815;28;20430;-74
2021/09/13 10:52:47;;;;;;;6.53;1.80;;;19.20;99.90;;;;;;5045892;28;20444;-74
2021/09/13 10:55:17;;;;;;;2.85;2.00;;;19.30;99.90;;;;;;5046174;28;20036;-74
2021/09/13 10:57:58;;;;;;;2.97;1.67;;;19.40;99.90;;;;;;5049943;28;20040;-75
2021/09/13 11:00:39;;;;;;;2.42;1.63;;;19.40;99.90;;;;;;5050555;28;20118;-74
2021/09/13 11:03:23;;;;;;;1.90;1.70;;;19.40;99.90;;;;;;5042603;28;20021;-74
2021/09/13 11:06:23;;;;;;;2.25;1.83;;;19.40;99.90;;;;;;5051974;28;20021;-74
2021/09/13 11:08:54;;;;;;;3.08;1.90;;;19.30;99.90;;;;;;5046844;28;20280;-74
2021/09/13 11:11:28;;;;;;;1.60;1.40;;;19.30;99.90;;;;;;5050262;28;20028;-73
2021/09/13 11:14:09;;;;;;;2.78;1.60;;;19.30;99.90;;;;;;5049635;28;20033;-75
2021/09/13 11:16:43;;;;;;;4.07;1.70;;;19.30;99.90;;;;;;5044099;28;20767;-74
2021/09/13 11:19:10;;;;;;;2.85;2.05;;;19.40;99.90;;;;;;5039425;28;20034;-74
2021/09/13 11:21:37;;;;;;;2.38;2.03;;;19.40;99.90;;;;;;5035656;28;20036;-74
2021/09/13 11:24:12;;;;;;;4.28;1.60;;;19.50;99.90;;;;;;5051267;28;20044;-74
2021/09/13 11:26:47;;;;;;;3.20;2.05;;;19.60;99.90;;;;;;5043926;28;20037;-74
2021/09/13 11:29:30;;;;;;;3.60;1.83;;;19.60;99.90;;;;;;5036146;28;20025;-74
2021/09/13 11:32:04;;;;;;;2.05;1.77;;;19.60;99.90;;;;;;5049031;28;20029;-74
2021/09/13 11:34:46;;;;;;;4.82;2.03;;;19.60;99.90;;;;;;5047260;28;20025;-74
2021/09/13 11:37:30;;;;;;;3.03;1.80;;;19.50;99.90;;;;;;5050634;28;20591;-73
2021/09/13 11:40:01;;;;;;;3.78;1.77;;;19.40;99.90;;;;;;5050647;28;20395;-74
2021/09/13 11:42:27;;;;;;;2.17;1.63;;;19.30;99.90;;;;;;5054232;28;20035;-74
2021/09/13 11:44:59;;;;;;;2.90;1.67;;;19.30;99.90;;;;;;5050119;28;21004;-73
2021/09/13 11:47:28;;;;;;;8.75;2.17;;;19.30;99.90;;;;;;5049639;28;20083;-73
2021/09/13 11:49:59;;;;;;;3.65;1.80;;;19.40;99.90;;;;;;5039400;28;20083;-74
2021/09/13 11:52:28;;;;;;;4.10;1.65;;;19.50;99.90;;;;;;5041818;28;20258;-73
2021/09/13 11:54:56;;;;;;;2.28;1.70;;;19.50;99.90;;;;;;5041789;28;20055;-74
2021/09/13 11:57:44;;;;;;;3.28;1.80;;;19.60;99.90;;;;;;5041284;28;20033;-73
2021/09/13 12:00:12;;;;;;;1.88;1.63;;;19.60;99.90;;;;;;5046207;28;20028;-73
2021/09/13 12:02:40;;;;;;;1.90;1.70;;;19.50;99.90;;;;;;5042920;28;20029;-73
2021/09/13 12:05:15;;;;;;;4.45;1.75;;;19.50;99.90;;;;;;5046866;28;20032;-73
2021/09/13 12:07:44;;;;;;;2.15;1.75;;;19.50;99.90;;;;;;5046143;28;20028;-73
2021/09/13 12:10:10;;;;;;;3.83;1.80;;;19.50;99.90;;;;;;5045206;28;20049;-73
2021/09/13 12:12:42;;;;;;;2.60;1.50;;;19.40;99.90;;;;;;5042691;28;20033;-74
2021/09/13 12:15:08;;;;;;;2.60;1.90;;;19.40;99.90;;;;;;5046594;28;20025;-82
2021/09/13 12:17:38;;;;;;;2.30;1.70;;;19.30;99.90;;;;;;5049728;28;20079;-82
2021/09/13 12:20:15;;;;;;;4.30;1.88;;;19.20;99.90;;;;;;5049960;28;20025;-82
2021/09/13 12:22:41;;;;;;;2.10;1.90;;;19.20;99.90;;;;;;5047794;28;20033;-81
2021/09/13 12:25:10;;;;;;;3.35;1.27;;;19.20;99.90;;;;;;5040632;28;20549;-82
2021/09/13 12:27:46;;;;;;;5.45;2.22;;;19.20;99.90;;;;;;5043196;28;20024;-83
2021/09/13 12:30:34;;;;;;;2.55;1.67;;;19.20;99.90;;;;;;5044603;28;20048;-73
2021/09/13 12:33:09;;;;;;;4.47;1.83;;;19.30;99.90;;;;;;5045421;28;20515;-73
2021/09/13 12:35:46;;;;;;;4.18;1.63;;;19.30;99.90;;;;;;5037003;28;20081;-76
2021/09/13 12:38:14;;;;;;;2.85;1.40;;;19.30;99.90;;;;;;5041094;28;20115;-75
2021/09/13 12:40:58;;;;;;;2.65;1.55;;;19.40;99.90;;;;;;5048910;28;20029;-73
2021/09/13 12:43:31;;;;;;;2.15;1.40;;;19.40;99.90;;;;;;5046032;28;20036;-73
2021/09/13 12:46:10;;;;;;;3.85;1.60;;;19.50;99.90;;;;;;5042568;28;20066;-80
2021/09/13 12:48:38;;;;;;;2.35;1.50;;;19.50;99.90;;;;;;5052629;28;20052;-72
2021/09/13 12:51:04;;;;;;;1.80;1.42;;;19.60;99.90;;;;;;5048442;28;20057;-72
2021/09/13 12:53:30;;;;;;;3.67;1.02;;;19.60;98.80;;;;;;5046237;28;20025;-71
2021/09/13 12:55:58;;;;;;;1.23;1.13;;;19.60;98.70;;;;;;5046828;28;20020;-73